Colton, Washington
Current Conditions -  °F | °C
As of 2:08 PM on Tuesday 25 Nov 2014 (Local Time) from KPUW Reporting Station
Light Rain Light Rain  
Wind Chill: 35°   Ceiling: 3200
Heat Index: 41°   Visibility: 5mi
Dew Point: 38°   Wind: 10mph
Humidity: 89%   Direction: 10°N
Pressure: 30.16"   Gusts: NA
Location:  46.57°N, 117.13°W
Report Text: KPUW 252208Z AUTO 01009KT 5SM -RA BR SCT025 BKN032 OVC045 05/03 A3016 RMK AO2 P0001 T00500033
Loading
Personal Weather Stations






























Interactive Weather Map New forecast layout! Learn more

10-Day Weather Forecast

Advertisements
Track Severe Weather on mobile